Time;durP1;ratioP1;P1;durP2;ratioP2;P2;SDS_P1;SDS_P2;PMS_P1;PMS_P2;Temp;Humidity;BMP_temperature;BMP_pressure;BME280_temperature;BME280_humidity;BME280_pressure;Samples;Min_cycle;Max_cycle;Signal;HPM_P1;HPM_P2
2022/10/07 00:00:56;;;;;;;2.97;1.43;;;14.60;93.50;;;;;;5009823;28;20218;-73
2022/10/07 00:03:25;;;;;;;2.63;1.40;;;14.50;93.40;;;;;;5009740;28;20628;-73
2022/10/07 00:06:04;;;;;;;2.60;1.63;;;14.50;93.50;;;;;;5008006;28;20564;-74
2022/10/07 00:08:34;;;;;;;1.73;1.40;;;14.50;93.50;;;;;;5007446;28;20203;-73
2022/10/07 00:11:07;;;;;;;2.17;1.43;;;14.50;93.60;;;;;;5006965;28;20192;-73
2022/10/07 00:13:38;;;;;;;3.67;1.60;;;14.50;93.60;;;;;;5010112;28;20206;-73
2022/10/07 00:16:07;;;;;;;3.77;1.70;;;14.50;93.60;;;;;;5008621;28;20191;-73
2022/10/07 00:18:35;;;;;;;6.20;2.10;;;14.50;93.60;;;;;;5009218;28;20660;-73
2022/10/07 00:21:03;;;;;;;11.10;3.00;;;14.50;93.60;;;;;;5009175;28;20723;-73
2022/10/07 00:23:33;;;;;;;6.27;2.60;;;14.40;93.60;;;;;;5009392;28;20296;-73
2022/10/07 00:26:01;;;;;;;8.93;2.60;;;14.40;93.70;;;;;;5009910;28;21087;-73
2022/10/07 00:28:28;;;;;;;8.47;2.53;;;14.40;93.80;;;;;;5009654;28;20733;-73
2022/10/07 00:30:59;;;;;;;5.50;2.13;;;14.40;93.80;;;;;;5008585;28;20191;-73
2022/10/07 00:33:27;;;;;;;5.63;2.33;;;14.40;93.80;;;;;;5009071;28;20227;-73
2022/10/07 00:35:54;;;;;;;6.07;2.63;;;14.40;93.80;;;;;;5009784;28;20203;-73
2022/10/07 00:38:22;;;;;;;5.03;2.10;;;14.30;93.80;;;;;;5007829;28;20195;-72
2022/10/07 00:40:51;;;;;;;5.13;2.23;;;14.30;93.80;;;;;;5007006;28;20219;-73
2022/10/07 00:43:20;;;;;;;8.07;2.90;;;14.30;93.90;;;;;;5008400;28;20223;-73
2022/10/07 00:45:47;;;;;;;11.83;3.23;;;14.20;93.80;;;;;;5009982;28;20206;-73
2022/10/07 00:48:19;;;;;;;5.47;2.53;;;14.20;93.90;;;;;;5010141;28;20201;-73
2022/10/07 00:50:50;;;;;;;9.07;2.40;;;14.20;93.90;;;;;;5008072;28;20231;-73
2022/10/07 00:53:18;;;;;;;5.33;2.40;;;14.20;93.90;;;;;;5009219;28;20195;-73
2022/10/07 00:55:45;;;;;;;7.13;2.40;;;14.10;94.00;;;;;;5008628;28;20211;-74
2022/10/07 00:58:14;;;;;;;5.70;2.73;;;14.10;94.10;;;;;;5010046;28;20191;-74
2022/10/07 01:00:42;;;;;;;4.70;2.40;;;14.10;94.20;;;;;;5007291;28;20214;-72
2022/10/07 01:03:09;;;;;;;3.83;2.20;;;14.00;94.20;;;;;;5008394;28;20229;-72
2022/10/07 01:05:36;;;;;;;2.60;2.00;;;14.10;94.30;;;;;;5008144;28;20238;-73
2022/10/07 01:08:03;;;;;;;4.33;1.87;;;14.00;94.30;;;;;;5007817;28;20692;-73
2022/10/07 01:10:39;;;;;;;3.13;1.40;;;14.00;94.30;;;;;;5008735;28;20198;-73
2022/10/07 01:13:14;;;;;;;3.53;2.00;;;14.00;94.30;;;;;;5007520;28;20198;-73
2022/10/07 01:15:50;;;;;;;3.80;1.73;;;13.90;94.30;;;;;;5009245;28;20241;-72
2022/10/07 01:18:25;;;;;;;2.70;1.80;;;13.90;94.40;;;;;;5007415;28;20209;-73
2022/10/07 01:20:59;;;;;;;3.10;1.60;;;13.90;94.50;;;;;;5006771;28;20345;-73
2022/10/07 01:23:40;;;;;;;3.13;1.67;;;13.90;94.50;;;;;;5006899;28;20202;-73
2022/10/07 01:26:40;;;;;;;2.03;1.30;;;13.80;94.50;;;;;;5006830;28;20198;-72
2022/10/07 01:29:12;;;;;;;1.30;1.20;;;13.80;94.50;;;;;;4990881;28;20205;-72
2022/10/07 01:31:46;;;;;;;1.13;1.03;;;13.80;94.50;;;;;;5009388;28;20549;-73
2022/10/07 01:34:15;;;;;;;1.67;1.20;;;13.80;94.50;;;;;;5008337;28;21016;-73
2022/10/07 01:36:49;;;;;;;1.67;1.33;;;13.90;94.60;;;;;;5006419;28;20285;-73
2022/10/07 01:39:23;;;;;;;1.60;1.20;;;13.90;94.50;;;;;;5007288;28;20206;-73
2022/10/07 01:41:52;;;;;;;1.33;1.23;;;13.90;94.50;;;;;;5005225;28;20218;-73
2022/10/07 01:44:20;;;;;;;2.40;1.20;;;13.90;94.50;;;;;;5007127;28;20203;-74
2022/10/07 01:46:47;;;;;;;1.43;1.20;;;13.80;94.40;;;;;;5007579;28;20198;-74
2022/10/07 01:49:14;;;;;;;3.53;1.33;;;13.80;94.50;;;;;;5007997;28;20221;-74
2022/10/07 01:51:52;;;;;;;1.33;1.23;;;13.80;94.50;;;;;;5006966;28;20675;-74
2022/10/07 01:54:28;;;;;;;1.30;1.10;;;13.70;94.50;;;;;;5006960;28;20200;-74
2022/10/07 01:57:10;;;;;;;2.20;1.40;;;13.80;94.50;;;;;;5006974;28;20194;-72
2022/10/07 02:00:04;;;;;;;1.27;1.17;;;13.70;94.40;;;;;;5013328;28;20202;-72
2022/10/07 02:03:25;;;;;;;2.73;1.57;;;13.70;94.40;;;;;;5009231;28;20217;-73
2022/10/07 02:06:01;;;;;;;1.80;1.40;;;13.70;94.40;;;;;;4991966;28;20300;-73
2022/10/07 02:08:33;;;;;;;1.63;1.40;;;13.60;94.40;;;;;;5006390;28;20201;-73
2022/10/07 02:11:10;;;;;;;2.40;1.67;;;13.60;94.40;;;;;;5013675;28;20623;-72
2022/10/07 02:14:00;;;;;;;3.07;1.57;;;13.60;94.50;;;;;;5006160;28;20680;-72
2022/10/07 02:16:35;;;;;;;2.50;1.40;;;13.60;94.40;;;;;;5007037;28;20204;-72
2022/10/07 02:19:09;;;;;;;2.27;1.53;;;13.60;94.50;;;;;;5007460;28;20263;-72
2022/10/07 02:21:38;;;;;;;3.90;1.63;;;13.50;94.40;;;;;;5006753;28;20307;-73
2022/10/07 02:24:07;;;;;;;2.03;1.70;;;13.50;94.40;;;;;;5008166;28;20206;-72
2022/10/07 02:26:37;;;;;;;2.47;1.27;;;13.50;94.40;;;;;;5006004;28;20197;-72
2022/10/07 02:29:09;;;;;;;1.40;1.30;;;13.40;94.40;;;;;;5006801;28;20208;-73
2022/10/07 02:31:40;;;;;;;2.60;1.63;;;13.40;94.50;;;;;;5006898;28;20221;-73
2022/10/07 02:34:10;;;;;;;1.87;1.40;;;13.40;94.50;;;;;;5007406;28;20202;-73
2022/10/07 02:36:43;;;;;;;2.97;1.90;;;13.40;94.50;;;;;;5007802;28;20205;-73
2022/10/07 02:39:12;;;;;;;2.07;1.73;;;13.30;94.50;;;;;;5007316;28;20205;-73
2022/10/07 02:41:48;;;;;;;2.97;1.60;;;13.30;94.50;;;;;;5007935;28;20242;-73
2022/10/07 02:44:28;;;;;;;3.47;1.73;;;13.30;94.50;;;;;;5010421;28;20206;-74
2022/10/07 02:47:02;;;;;;;1.93;1.33;;;13.30;94.50;;;;;;5009875;28;20195;-73
2022/10/07 02:49:31;;;;;;;7.00;2.70;;;13.40;94.50;;;;;;5011259;28;20203;-72
2022/10/07 02:52:01;;;;;;;3.83;2.83;;;13.30;94.50;;;;;;5010250;28;20203;-72
2022/10/07 02:54:35;;;;;;;4.90;3.40;;;13.20;94.50;;;;;;5009889;28;20707;-74
2022/10/07 02:57:04;;;;;;;8.17;5.77;;;13.20;94.60;;;;;;5009538;28;20188;-75
2022/10/07 02:59:34;;;;;;;12.90;8.07;;;13.20;94.60;;;;;;5019007;28;20210;-73
2022/10/07 03:02:05;;;;;;;17.77;10.70;;;13.20;94.60;;;;;;5011470;28;20206;-74
2022/10/07 03:04:32;;;;;;;17.17;11.80;;;13.10;95.00;;;;;;5010787;28;20260;-73
2022/10/07 03:07:01;;;;;;;17.63;11.50;;;13.20;94.80;;;;;;5009717;28;20204;-73
2022/10/07 03:09:30;;;;;;;17.37;10.77;;;13.10;94.80;;;;;;5010206;28;20694;-74
2022/10/07 03:11:57;;;;;;;14.63;9.63;;;13.10;94.90;;;;;;5010707;28;20201;-74
2022/10/07 03:14:25;;;;;;;12.47;7.90;;;13.00;94.90;;;;;;5010153;28;20238;-74
2022/10/07 03:16:53;;;;;;;9.03;5.73;;;13.00;94.90;;;;;;5009952;28;20231;-73
2022/10/07 03:19:22;;;;;;;6.80;4.97;;;13.00;94.90;;;;;;5008145;28;20656;-74
2022/10/07 03:21:54;;;;;;;8.80;5.43;;;13.10;94.90;;;;;;5006629;28;20312;-73
2022/10/07 03:24:21;;;;;;;9.73;5.20;;;13.10;94.90;;;;;;5010095;28;20200;-74
2022/10/07 03:26:50;;;;;;;6.80;4.17;;;13.00;94.90;;;;;;5009836;28;20208;-74
2022/10/07 03:29:18;;;;;;;4.60;3.40;;;13.00;95.00;;;;;;5009774;28;20208;-73
2022/10/07 03:31:46;;;;;;;3.60;2.67;;;13.10;95.00;;;;;;5009422;28;20194;-73
2022/10/07 03:34:14;;;;;;;4.97;3.40;;;13.10;95.00;;;;;;5010247;28;20195;-72
2022/10/07 03:36:44;;;;;;;7.13;3.63;;;13.10;95.10;;;;;;5008583;28;20225;-73
2022/10/07 03:39:12;;;;;;;5.17;3.30;;;13.10;95.10;;;;;;5007489;28;20624;-73
2022/10/07 03:41:40;;;;;;;8.10;3.33;;;13.10;95.10;;;;;;5008075;28;20237;-73
2022/10/07 03:44:07;;;;;;;8.73;3.73;;;13.10;95.20;;;;;;5008291;28;20283;-73
2022/10/07 03:46:34;;;;;;;6.43;2.77;;;13.10;95.30;;;;;;5009573;28;20683;-73
2022/10/07 03:49:03;;;;;;;5.33;2.77;;;13.00;95.30;;;;;;5011380;28;20204;-73
2022/10/07 03:51:34;;;;;;;4.67;2.50;;;13.00;95.40;;;;;;5008460;28;20767;-73
2022/10/07 03:54:03;;;;;;;5.00;2.37;;;13.00;95.50;;;;;;5010091;28;20193;-73
2022/10/07 03:56:33;;;;;;;5.47;2.27;;;13.00;95.60;;;;;;5009677;28;20200;-73
2022/10/07 03:59:01;;;;;;;3.40;2.50;;;13.00;95.70;;;;;;5010806;28;20201;-73
2022/10/07 04:01:30;;;;;;;5.07;2.93;;;13.00;95.70;;;;;;5008760;28;20228;-73
2022/10/07 04:03:59;;;;;;;7.90;4.20;;;12.90;95.70;;;;;;5009605;28;20263;-73
2022/10/07 04:06:28;;;;;;;5.70;5.17;;;13.00;95.80;;;;;;5008242;28;20195;-74
2022/10/07 04:08:57;;;;;;;8.47;5.63;;;12.90;95.90;;;;;;5009041;28;20240;-73
2022/10/07 04:11:25;;;;;;;5.03;4.50;;;12.90;95.90;;;;;;5009596;28;20204;-73
2022/10/07 04:13:59;;;;;;;5.87;4.67;;;12.90;95.90;;;;;;5009061;28;20202;-73
2022/10/07 04:16:27;;;;;;;4.50;3.70;;;12.90;95.90;;;;;;5009856;28;20203;-73
2022/10/07 04:18:56;;;;;;;7.83;4.10;;;12.90;96.00;;;;;;5009683;28;20201;-73
2022/10/07 04:21:26;;;;;;;5.10;3.43;;;12.90;96.00;;;;;;5010948;28;20205;-73
2022/10/07 04:23:53;;;;;;;2.90;2.60;;;12.90;96.10;;;;;;5010357;28;20213;-73
2022/10/07 04:26:22;;;;;;;3.47;2.17;;;12.90;96.10;;;;;;5008994;28;20204;-73
2022/10/07 04:28:50;;;;;;;6.63;2.43;;;12.90;96.10;;;;;;5008423;28;20273;-73
2022/10/07 04:31:23;;;;;;;3.47;2.10;;;12.90;96.10;;;;;;5008309;28;20197;-73
2022/10/07 04:34:09;;;;;;;2.03;1.77;;;12.80;96.10;;;;;;5008504;28;20212;-72
2022/10/07 04:36:40;;;;;;;3.33;1.87;;;12.80;96.20;;;;;;5007909;28;20663;-73
2022/10/07 04:39:09;;;;;;;2.97;1.80;;;12.80;96.20;;;;;;5008506;28;20706;-73
2022/10/07 04:41:43;;;;;;;4.50;1.90;;;12.80;96.30;;;;;;5006277;28;20252;-74
2022/10/07 04:44:16;;;;;;;3.00;1.50;;;12.80;96.30;;;;;;5007132;28;20674;-72
2022/10/07 04:46:55;;;;;;;3.77;2.10;;;12.70;96.30;;;;;;5008468;28;20200;-72
2022/10/07 04:49:24;;;;;;;5.93;2.20;;;12.80;96.40;;;;;;5009550;28;20545;-72
2022/10/07 04:51:53;;;;;;;2.87;1.83;;;12.70;96.40;;;;;;5006552;28;20287;-72
2022/10/07 04:54:23;;;;;;;4.07;1.77;;;12.70;96.50;;;;;;5008701;28;20679;-73
2022/10/07 04:56:55;;;;;;;4.53;2.07;;;12.70;96.50;;;;;;5007844;28;20215;-73
2022/10/07 04:59:25;;;;;;;6.63;2.33;;;12.70;96.60;;;;;;5008606;28;20195;-73
2022/10/07 05:01:54;;;;;;;6.43;1.70;;;12.70;96.60;;;;;;5007547;28;20645;-73
2022/10/07 05:04:22;;;;;;;5.13;2.10;;;12.60;96.60;;;;;;5007921;28;20237;-73
2022/10/07 05:06:51;;;;;;;2.57;1.90;;;12.60;96.70;;;;;;5007007;28;20218;-73
2022/10/07 05:09:19;;;;;;;4.97;2.40;;;12.60;96.80;;;;;;5008732;28;20235;-74
2022/10/07 05:11:48;;;;;;;2.60;2.40;;;12.60;96.80;;;;;;5006770;28;20192;-74
2022/10/07 05:14:20;;;;;;;3.63;2.00;;;12.60;96.80;;;;;;5008178;28;20208;-73
2022/10/07 05:16:48;;;;;;;4.77;2.77;;;12.70;96.90;;;;;;5007417;28;20236;-73
2022/10/07 05:19:16;;;;;;;6.70;2.70;;;12.70;96.90;;;;;;5008505;28;20563;-73
2022/10/07 05:21:45;;;;;;;3.87;2.40;;;12.60;96.90;;;;;;5006083;28;20234;-73
2022/10/07 05:24:12;;;;;;;3.87;2.30;;;12.50;96.80;;;;;;5007057;28;20191;-73
2022/10/07 05:26:40;;;;;;;6.47;2.40;;;12.60;96.90;;;;;;5007832;28;20203;-73
2022/10/07 05:29:08;;;;;;;3.40;2.03;;;12.50;96.90;;;;;;5007420;28;20542;-73
2022/10/07 05:31:45;;;;;;;6.57;2.50;;;12.60;97.00;;;;;;5005778;28;20217;-73
2022/10/07 05:34:15;;;;;;;3.50;2.00;;;12.50;96.90;;;;;;5007901;28;20195;-73
2022/10/07 05:36:43;;;;;;;3.10;1.93;;;12.50;97.00;;;;;;5007433;28;20199;-73
2022/10/07 05:39:13;;;;;;;4.23;2.20;;;12.60;97.00;;;;;;5006641;28;20196;-74
2022/10/07 05:41:52;;;;;;;4.73;2.00;;;12.60;97.00;;;;;;5004888;28;20217;-73
2022/10/07 05:44:28;;;;;;;4.07;1.60;;;12.60;97.00;;;;;;5007209;28;20204;-73
2022/10/07 05:46:59;;;;;;;2.93;2.03;;;12.60;97.00;;;;;;5005680;28;20331;-72
2022/10/07 05:49:27;;;;;;;4.13;1.70;;;12.70;97.10;;;;;;5007892;28;20200;-73
2022/10/07 05:51:54;;;;;;;4.37;1.77;;;12.60;97.00;;;;;;5006945;28;20204;-72
2022/10/07 05:54:23;;;;;;;2.63;1.60;;;12.70;97.10;;;;;;5007929;28;20223;-74
2022/10/07 05:56:50;;;;;;;4.23;1.87;;;12.70;97.10;;;;;;5006558;28;20211;-73
2022/10/07 05:59:21;;;;;;;2.40;1.50;;;12.70;97.10;;;;;;5007886;28;20286;-74
2022/10/07 06:01:49;;;;;;;2.10;1.50;;;12.70;97.20;;;;;;5006249;28;20216;-73
2022/10/07 06:04:21;;;;;;;3.47;2.10;;;12.70;97.20;;;;;;5006229;28;20708;-73
2022/10/07 06:06:53;;;;;;;5.00;2.23;;;12.70;97.20;;;;;;5005233;28;20203;-73
2022/10/07 06:14:58;;;;;;;4.20;1.70;;;12.70;97.40;;;;;;5007599;28;20191;-72
2022/10/07 06:17:26;;;;;;;5.27;2.03;;;12.80;97.40;;;;;;5012143;28;20220;-73
2022/10/07 06:19:58;;;;;;;5.93;1.90;;;12.80;97.50;;;;;;5011050;28;20197;-74
2022/10/07 06:22:26;;;;;;;2.13;1.50;;;12.90;97.50;;;;;;5011137;28;20208;-73
2022/10/07 06:24:56;;;;;;;3.40;2.03;;;12.90;97.50;;;;;;5013025;28;20211;-74
2022/10/07 06:27:24;;;;;;;2.30;1.80;;;12.90;97.50;;;;;;5011584;28;20287;-73
2022/10/07 06:29:54;;;;;;;3.07;1.73;;;13.00;97.60;;;;;;5009073;28;20197;-73
2022/10/07 06:32:21;;;;;;;5.87;1.80;;;13.00;97.60;;;;;;5012121;28;20657;-73
2022/10/07 06:34:49;;;;;;;5.00;2.03;;;13.00;97.70;;;;;;5011355;28;20291;-74
2022/10/07 06:37:19;;;;;;;3.67;1.70;;;13.10;97.70;;;;;;5010129;28;20735;-74
2022/10/07 06:39:46;;;;;;;3.40;1.70;;;13.10;97.70;;;;;;5008755;28;20672;-73
2022/10/07 06:42:13;;;;;;;6.70;1.70;;;13.20;97.80;;;;;;5009084;28;20200;-74
2022/10/07 06:44:56;;;;;;;2.00;1.43;;;13.20;97.80;;;;;;5011173;28;20563;-73
2022/10/07 06:47:24;;;;;;;5.37;2.33;;;13.20;97.90;;;;;;5011810;28;20200;-74
2022/10/07 06:49:52;;;;;;;2.80;1.63;;;13.30;98.00;;;;;;5011037;28;20264;-74
2022/10/07 06:52:20;;;;;;;4.20;1.73;;;13.40;98.10;;;;;;5011134;28;20196;-74
2022/10/07 06:54:48;;;;;;;2.70;1.80;;;13.30;98.20;;;;;;5010713;28;20197;-72
2022/10/07 06:57:17;;;;;;;2.63;1.77;;;13.40;98.30;;;;;;5010503;28;20537;-72
2022/10/07 06:59:45;;;;;;;2.73;1.70;;;13.40;98.30;;;;;;5008863;28;20615;-73
2022/10/07 07:02:16;;;;;;;3.00;1.90;;;13.50;98.40;;;;;;5010251;28;20287;-74
2022/10/07 07:04:44;;;;;;;2.13;1.67;;;13.50;98.40;;;;;;5009954;28;20243;-73
2022/10/07 07:07:11;;;;;;;3.03;1.50;;;13.50;98.40;;;;;;5011583;28;20192;-72
2022/10/07 07:09:41;;;;;;;1.93;1.70;;;13.60;98.80;;;;;;5010069;28;20253;-74
2022/10/07 07:12:10;;;;;;;3.33;1.60;;;13.60;98.60;;;;;;5025344;28;20274;-72
2022/10/07 07:14:43;;;;;;;4.40;1.90;;;13.70;98.80;;;;;;5010119;28;20233;-74
2022/10/07 07:17:17;;;;;;;5.53;2.83;;;13.90;98.90;;;;;;5009916;28;20292;-75
2022/10/07 07:19:45;;;;;;;6.93;3.07;;;13.80;98.90;;;;;;5009292;28;20344;-74
2022/10/07 07:22:12;;;;;;;7.37;2.20;;;13.90;99.10;;;;;;5010729;28;20196;-73
2022/10/07 07:24:45;;;;;;;6.73;2.33;;;13.90;99.20;;;;;;5009367;28;20576;-73
2022/10/07 07:27:14;;;;;;;5.63;2.20;;;13.90;99.30;;;;;;5007698;28;20185;-74
2022/10/07 07:29:43;;;;;;;3.13;1.70;;;14.00;99.50;;;;;;5009709;28;20588;-74
2022/10/07 07:32:12;;;;;;;4.17;1.97;;;14.00;99.60;;;;;;5009655;28;20204;-73
2022/10/07 07:34:42;;;;;;;5.90;2.10;;;14.10;99.70;;;;;;5010397;28;20296;-73
2022/10/07 07:37:13;;;;;;;6.93;2.43;;;14.10;99.80;;;;;;5010833;28;20197;-73
2022/10/07 07:39:47;;;;;;;6.17;2.30;;;14.20;99.90;;;;;;5008639;28;20526;-73
2022/10/07 07:42:17;;;;;;;7.50;2.27;;;14.20;99.90;;;;;;5008021;28;20210;-74
2022/10/07 07:44:45;;;;;;;5.63;1.77;;;14.20;99.90;;;;;;5009288;28;20197;-74
2022/10/07 07:47:16;;;;;;;6.13;2.10;;;14.30;99.90;;;;;;5008297;28;20281;-73
2022/10/07 07:49:44;;;;;;;5.30;2.27;;;14.30;99.90;;;;;;5007868;28;20341;-73
2022/10/07 07:52:17;;;;;;;5.90;1.90;;;14.30;99.90;;;;;;5009060;28;20594;-73
2022/10/07 07:54:50;;;;;;;5.07;2.23;;;14.40;99.90;;;;;;5010009;28;20702;-74
2022/10/07 07:57:18;;;;;;;5.07;2.10;;;14.40;99.90;;;;;;5010681;28;20198;-73
2022/10/07 07:59:45;;;;;;;6.10;2.57;;;14.50;99.90;;;;;;5009866;28;20430;-73
2022/10/07 08:02:15;;;;;;;4.63;2.30;;;14.50;99.90;;;;;;5008484;28;20208;-74
2022/10/07 08:04:46;;;;;;;4.27;2.23;;;14.60;99.90;;;;;;5009518;28;20778;-73
2022/10/07 08:07:14;;;;;;;5.57;2.50;;;14.70;99.90;;;;;;5025587;28;20297;-74
2022/10/07 08:09:45;;;;;;;6.17;2.60;;;14.80;99.90;;;;;;5009646;28;20210;-73
2022/10/07 08:12:14;;;;;;;8.40;2.27;;;14.80;99.90;;;;;;5008027;28;20789;-74
2022/10/07 08:14:42;;;;;;;4.93;2.70;;;14.90;99.90;;;;;;5009515;28;20261;-73
2022/10/07 08:17:09;;;;;;;6.77;1.90;;;14.90;99.90;;;;;;5008095;28;20217;-73
2022/10/07 08:19:37;;;;;;;3.67;1.70;;;15.00;99.90;;;;;;5008186;28;20549;-74
2022/10/07 08:22:06;;;;;;;7.43;2.30;;;15.00;99.90;;;;;;5007885;28;20203;-73
2022/10/07 08:24:34;;;;;;;6.53;1.53;;;15.10;99.50;;;;;;5008552;28;20222;-73
2022/10/07 08:27:01;;;;;;;3.70;1.30;;;15.10;99.10;;;;;;5008773;28;20622;-73
2022/10/07 08:29:30;;;;;;;4.87;1.40;;;15.20;98.90;;;;;;5008535;28;20213;-73
2022/10/07 08:31:57;;;;;;;1.73;1.40;;;15.20;98.70;;;;;;5008090;28;20204;-74
2022/10/07 08:34:25;;;;;;;1.03;0.97;;;15.20;98.50;;;;;;5009087;28;20195;-73
2022/10/07 08:36:53;;;;;;;2.93;1.27;;;15.30;98.30;;;;;;5007817;28;20211;-74
2022/10/07 08:39:20;;;;;;;1.90;1.27;;;15.40;98.10;;;;;;5008883;28;20682;-73
2022/10/07 08:42:00;;;;;;;2.23;1.40;;;15.50;97.60;;;;;;5007657;28;20234;-73
2022/10/07 08:44:32;;;;;;;4.23;1.70;;;15.50;97.30;;;;;;5007698;28;20287;-73
2022/10/07 08:47:06;;;;;;;2.37;1.17;;;15.50;97.00;;;;;;5009762;28;20206;-74
2022/10/07 08:49:44;;;;;;;1.10;1.00;;;15.50;96.70;;;;;;5009238;28;20187;-73
2022/10/07 08:52:26;;;;;;;5.30;1.03;;;15.60;96.70;;;;;;5008884;28;20188;-74
2022/10/07 08:54:54;;;;;;;2.17;1.13;;;15.60;96.50;;;;;;5007107;28;20212;-73
2022/10/07 08:57:38;;;;;;;2.20;1.50;;;15.60;96.40;;;;;;5009105;28;20195;-73
2022/10/07 09:00:12;;;;;;;2.63;1.60;;;15.70;96.30;;;;;;5006905;28;20191;-73
2022/10/07 09:02:52;;;;;;;4.17;1.70;;;15.70;96.10;;;;;;5010687;28;20194;-73
2022/10/07 09:05:31;;;;;;;2.13;1.30;;;15.70;95.80;;;;;;5006197;28;20289;-74
2022/10/07 09:08:01;;;;;;;3.40;1.30;;;15.70;95.70;;;;;;5009538;28;20195;-74
2022/10/07 09:10:37;;;;;;;1.90;1.47;;;15.80;95.60;;;;;;5007401;28;20225;-73
2022/10/07 09:13:11;;;;;;;3.30;1.43;;;15.80;95.60;;;;;;5009822;28;20659;-73
2022/10/07 09:15:57;;;;;;;1.50;1.40;;;15.80;95.50;;;;;;5008595;28;20187;-72
2022/10/07 09:18:28;;;;;;;2.33;1.50;;;15.90;95.60;;;;;;5006589;28;20195;-74
2022/10/07 09:20:56;;;;;;;2.70;1.50;;;15.90;95.40;;;;;;5009106;28;20659;-73
2022/10/07 09:23:28;;;;;;;5.10;1.63;;;15.90;95.30;;;;;;5009337;28;20274;-73
2022/10/07 09:26:00;;;;;;;3.53;1.43;;;16.00;94.90;;;;;;5009265;28;20222;-74
2022/10/07 09:28:29;;;;;;;1.47;1.00;;;16.00;94.70;;;;;;5008215;28;20698;-74
2022/10/07 09:30:59;;;;;;;2.13;1.30;;;16.00;94.50;;;;;;5007516;28;20210;-73
2022/10/07 09:33:29;;;;;;;5.60;1.40;;;16.10;94.30;;;;;;5007117;28;20211;-74
2022/10/07 09:36:01;;;;;;;2.23;1.10;;;16.10;94.10;;;;;;5007596;28;20211;-74
2022/10/07 09:38:34;;;;;;;5.33;1.73;;;16.10;94.00;;;;;;5009143;28;20644;-73
2022/10/07 09:41:15;;;;;;;4.47;1.30;;;16.20;93.60;;;;;;5005204;28;20196;-74
2022/10/07 09:44:02;;;;;;;2.60;1.17;;;16.20;93.20;;;;;;5006484;28;20211;-73
2022/10/07 09:46:45;;;;;;;4.30;1.20;;;16.00;92.80;;;;;;5007659;28;20719;-73
2022/10/07 09:49:35;;;;;;;2.50;1.00;;;16.40;92.80;;;;;;5007570;28;20230;-73
2022/10/07 09:52:04;;;;;;;6.43;1.10;;;16.50;92.50;;;;;;5005783;28;20670;-74
2022/10/07 09:54:32;;;;;;;3.23;1.10;;;16.70;92.30;;;;;;5005295;28;20545;-74
2022/10/07 09:57:02;;;;;;;2.43;1.20;;;17.10;91.70;;;;;;5008024;28;20649;-74
2022/10/07 09:59:31;;;;;;;2.53;1.20;;;18.10;91.50;;;;;;5005372;28;20205;-74
2022/10/07 10:02:02;;;;;;;1.48;1.05;;;19.90;89.00;;;;;;5008573;28;20204;-74
2022/10/07 10:04:32;;;;;;;2.28;1.10;;;21.60;84.00;;;;;;5005605;28;20231;-73
2022/10/07 10:07:04;;;;;;;3.97;1.30;;;23.10;78.80;;;;;;5006976;28;20197;-73
2022/10/07 10:09:34;;;;;;;3.53;1.10;;;24.40;72.50;;;;;;5005756;28;20278;-73
2022/10/07 10:12:13;;;;;;;2.88;1.30;;;25.50;67.70;;;;;;5008118;28;20735;-75
2022/10/07 10:14:47;;;;;;;3.65;1.33;;;26.50;65.10;;;;;;5006504;28;20198;-74
2022/10/07 10:17:30;;;;;;;1.55;1.27;;;27.40;60.20;;;;;;5008614;28;20650;-74
2022/10/07 10:20:25;;;;;;;2.28;1.13;;;28.20;58.70;;;;;;5007993;28;20290;-72
2022/10/07 10:22:53;;;;;;;1.55;1.30;;;28.90;55.90;;;;;;5008418;28;20206;-73
2022/10/07 10:28:22;;;;;;;6.45;1.50;;;30.10;52.00;;;;;;5006833;28;20184;-73
2022/10/07 10:30:56;;;;;;;3.63;1.30;;;30.50;48.10;;;;;;5008201;28;20199;-73
2022/10/07 10:33:30;;;;;;;1.55;1.20;;;30.60;47.60;;;;;;5007755;28;20689;-74
2022/10/07 10:36:14;;;;;;;1.60;1.08;;;30.10;46.80;;;;;;5005995;28;20205;-73
2022/10/07 10:38:49;;;;;;;4.10;1.55;;;29.30;47.40;;;;;;5007543;28;20684;-72
2022/10/07 10:41:29;;;;;;;2.25;1.30;;;28.70;48.40;;;;;;5006328;28;20237;-73
2022/10/07 10:44:18;;;;;;;2.33;1.20;;;28.10;48.20;;;;;;5006461;28;20567;-74
2022/10/07 10:46:55;;;;;;;2.10;1.52;;;27.60;48.40;;;;;;5021547;28;20195;-73
2022/10/07 10:49:29;;;;;;;1.73;1.17;;;26.50;49.50;;;;;;5007051;28;20274;-74
2022/10/07 10:52:19;;;;;;;3.20;1.20;;;25.50;50.90;;;;;;5006383;28;20357;-74
2022/10/07 10:55:00;;;;;;;5.20;1.40;;;24.50;52.50;;;;;;5008489;28;20202;-74
2022/10/07 10:57:37;;;;;;;1.13;1.02;;;23.80;53.00;;;;;;5009390;28;20210;-73
2022/10/07 11:00:10;;;;;;;4.88;1.30;;;23.20;53.80;;;;;;5007818;28;20195;-74
2022/10/07 11:03:05;;;;;;;1.33;1.15;;;22.60;54.50;;;;;;5008134;28;20261;-74
2022/10/07 11:05:35;;;;;;;2.65;1.20;;;22.20;55.40;;;;;;4992636;28;20322;-73
2022/10/07 11:08:10;;;;;;;1.83;0.93;;;21.80;56.00;;;;;;5010521;28;20199;-73
2022/10/07 11:10:42;;;;;;;1.45;1.08;;;21.40;56.30;;;;;;5011078;28;20198;-73
2022/10/07 11:13:27;;;;;;;3.22;1.40;;;21.20;56.60;;;;;;5011844;28;20191;-73
2022/10/07 11:15:59;;;;;;;1.10;1.00;;;20.90;57.00;;;;;;5010775;28;20195;-74
2022/10/07 11:18:32;;;;;;;2.08;1.00;;;20.60;57.40;;;;;;5007589;28;20203;-75
2022/10/07 11:21:01;;;;;;;1.88;1.15;;;20.40;57.80;;;;;;5009308;28;20214;-74
2022/10/07 11:23:36;;;;;;;3.08;1.20;;;20.30;58.20;;;;;;5011263;28;20183;-73
2022/10/07 11:26:12;;;;;;;2.20;1.23;;;20.10;58.30;;;;;;5009294;28;20191;-74
2022/10/07 11:28:43;;;;;;;2.38;1.10;;;20.00;58.90;;;;;;5010952;28;20195;-74
2022/10/07 11:31:19;;;;;;;1.10;0.80;;;19.90;59.10;;;;;;5010997;28;20266;-74
2022/10/07 11:33:50;;;;;;;3.17;1.10;;;19.80;59.60;;;;;;5010041;28;20270;-74
2022/10/07 11:36:25;;;;;;;6.78;1.33;;;19.70;59.80;;;;;;5010978;28;21410;-74
2022/10/07 11:38:53;;;;;;;1.15;1.00;;;19.60;60.10;;;;;;5010492;28;20209;-73
2022/10/07 11:41:24;;;;;;;6.15;1.42;;;19.50;60.50;;;;;;5008893;28;20188;-74
2022/10/07 11:43:55;;;;;;;1.70;1.08;;;19.40;60.60;;;;;;5010032;28;20286;-74
2022/10/07 11:46:29;;;;;;;4.47;1.13;;;19.40;61.00;;;;;;5010916;28;20567;-74
2022/10/07 11:49:01;;;;;;;1.85;1.10;;;19.30;61.60;;;;;;5010175;28;20218;-74
2022/10/07 11:51:34;;;;;;;2.60;1.20;;;19.20;61.90;;;;;;5009209;28;20260;-74
2022/10/07 11:54:05;;;;;;;2.35;1.08;;;19.20;62.30;;;;;;5010078;28;20202;-74
2022/10/07 11:56:44;;;;;;;5.82;1.45;;;19.10;62.50;;;;;;5010400;28;20191;-74
2022/10/07 11:59:32;;;;;;;1.83;1.00;;;19.10;62.90;;;;;;5007373;28;20790;-75
2022/10/07 12:02:00;;;;;;;1.60;1.20;;;19.00;63.00;;;;;;5009840;28;20198;-73
2022/10/07 12:04:45;;;;;;;2.92;1.25;;;19.00;63.20;;;;;;5009056;28;20270;-75
2022/10/07 12:07:40;;;;;;;2.03;1.00;;;19.00;63.40;;;;;;5008982;28;20202;-73
2022/10/07 12:10:24;;;;;;;4.43;2.20;;;19.00;62.30;;;;;;5010106;28;20192;-75
2022/10/07 12:12:55;;;;;;;14.43;4.78;;;19.00;61.70;;;;;;5010259;28;20195;-73
2022/10/07 12:15:32;;;;;;;9.32;3.17;;;19.00;61.90;;;;;;5009970;28;20202;-73
2022/10/07 12:18:27;;;;;;;4.03;1.85;;;19.10;62.20;;;;;;5008021;28;20203;-74
2022/10/07 12:21:00;;;;;;;2.38;1.40;;;19.30;62.10;;;;;;5007957;28;20203;-74
2022/10/07 12:24:09;;;;;;;1.88;1.25;;;19.50;61.70;;;;;;5009972;28;20198;-74
2022/10/07 12:26:47;;;;;;;3.50;0.95;;;19.70;60.50;;;;;;5006717;28;20199;-73
2022/10/07 12:29:30;;;;;;;2.22;1.00;;;20.20;60.00;;;;;;5007303;28;20206;-73
2022/10/07 12:31:59;;;;;;;2.10;1.20;;;21.60;59.20;;;;;;5009452;28;20655;-73
2022/10/07 12:34:40;;;;;;;3.25;1.20;;;23.50;57.10;;;;;;5010472;28;20196;-74
2022/10/07 12:37:45;;;;;;;1.58;1.10;;;24.70;54.40;;;;;;5009327;28;20302;-73
2022/10/07 12:40:26;;;;;;;2.03;1.00;;;25.20;53.00;;;;;;5007610;28;20647;-74
2022/10/07 12:43:09;;;;;;;1.30;1.20;;;25.20;52.20;;;;;;5008639;28;20691;-74
2022/10/07 12:45:42;;;;;;;2.38;1.30;;;25.30;52.10;;;;;;5006627;28;20211;-74
2022/10/07 12:48:15;;;;;;;4.05;1.45;;;26.00;51.10;;;;;;5008625;28;20253;-74
2022/10/07 12:50:45;;;;;;;1.85;0.95;;;27.00;50.10;;;;;;5009515;28;20222;-74
2022/10/07 12:53:13;;;;;;;4.53;1.38;;;28.00;49.80;;;;;;5009212;28;20195;-74
2022/10/07 12:55:47;;;;;;;1.88;1.38;;;28.80;47.60;;;;;;5009504;28;20202;-73
2022/10/07 13:01:49;;;;;;;3.05;1.40;;;29.50;47.30;;;;;;5008713;28;20670;-74
2022/10/07 13:04:47;;;;;;;4.03;1.38;;;29.90;47.10;;;;;;5009513;28;20227;-73
2022/10/07 13:07:50;;;;;;;3.55;1.15;;;29.90;44.70;;;;;;5007042;28;20564;-73
2022/10/07 13:10:50;;;;;;;1.05;1.00;;;29.40;44.80;;;;;;5007893;28;20199;-73
2022/10/07 13:13:23;;;;;;;1.63;1.17;;;28.50;45.30;;;;;;5007390;28;20222;-74
2022/10/07 13:15:55;;;;;;;1.77;1.38;;;27.40;46.50;;;;;;5008126;28;20640;-74
2022/10/07 13:18:32;;;;;;;1.52;0.88;;;26.30;47.20;;;;;;5006379;28;20567;-74
2022/10/07 13:21:11;;;;;;;0.80;0.77;;;25.40;48.40;;;;;;5007552;28;20253;-74
2022/10/07 13:23:39;;;;;;;1.55;1.00;;;24.60;49.40;;;;;;5009093;28;20318;-74
2022/10/07 13:26:07;;;;;;;4.00;1.23;;;23.90;50.10;;;;;;5008483;28;20620;-74